createdAt,value
2018-10-06T00:00:28.778Z,91.10
2018-10-06T00:02:57.433Z,91.40
2018-10-06T00:05:26.149Z,91.20
2018-10-06T00:07:55.193Z,91.20
2018-10-06T00:10:23.813Z,91.40
2018-10-06T00:12:52.439Z,91.10
2018-10-06T00:15:21.211Z,91.10
2018-10-06T00:17:49.855Z,91.00
2018-10-06T00:20:18.449Z,91.10
2018-10-06T00:22:47.254Z,91.20
2018-10-06T00:25:15.858Z,91.20
2018-10-06T00:27:44.469Z,91.10
2018-10-06T00:30:13.208Z,91.00
2018-10-06T00:32:41.849Z,91.20
2018-10-06T00:35:10.448Z,91.50
2018-10-06T00:37:39.054Z,91.50
2018-10-06T00:40:07.683Z,91.40
2018-10-06T00:42:36.302Z,91.20
2018-10-06T00:45:05.203Z,91.30
2018-10-06T00:47:33.816Z,91.50
2018-10-06T00:50:02.434Z,91.50
2018-10-06T00:52:31.019Z,91.80
2018-10-06T00:54:59.562Z,91.40
2018-10-06T00:57:28.180Z,91.40
2018-10-06T00:59:56.727Z,91.50
2018-10-06T01:02:25.369Z,91.50
2018-10-06T01:04:53.919Z,91.50
2018-10-06T01:07:22.680Z,91.40
2018-10-06T01:09:51.268Z,91.60
2018-10-06T01:12:19.936Z,91.90
2018-10-06T01:14:48.537Z,91.70
2018-10-06T01:17:17.143Z,91.50
2018-10-06T01:19:45.703Z,91.60
2018-10-06T01:22:14.298Z,91.50
2018-10-06T01:24:42.878Z,91.50
2018-10-06T01:27:11.466Z,91.50
2018-10-06T01:29:40.044Z,91.50
2018-10-06T01:32:08.639Z,91.50
2018-10-06T01:34:37.205Z,91.50
2018-10-06T01:37:05.837Z,91.50
2018-10-06T01:39:34.423Z,91.40
2018-10-06T01:42:03.146Z,91.40
2018-10-06T01:44:31.706Z,91.30
2018-10-06T01:47:00.291Z,91.40
2018-10-06T01:49:28.905Z,91.30
2018-10-06T01:51:57.515Z,91.30
2018-10-06T01:54:26.144Z,91.20
2018-10-06T01:56:54.722Z,91.40
2018-10-06T01:59:23.301Z,91.20
2018-10-06T02:01:51.879Z,91.20
2018-10-06T02:04:24.024Z,91.20
2018-10-06T02:06:53.133Z,91.20
2018-10-06T02:09:21.779Z,91.20
2018-10-06T02:11:50.729Z,91.10
2018-10-06T02:14:19.327Z,91.20
2018-10-06T02:16:48.204Z,91.20
2018-10-06T02:19:16.820Z,91.30
2018-10-06T02:21:45.386Z,91.20
2018-10-06T02:24:13.973Z,91.30
2018-10-06T02:26:42.526Z,91.30
2018-10-06T02:29:11.113Z,91.70
2018-10-06T02:31:39.689Z,91.50
2018-10-06T02:34:08.284Z,91.60
2018-10-06T02:36:36.851Z,91.60
2018-10-06T02:39:06.301Z,91.70
2018-10-06T02:41:34.902Z,91.60
2018-10-06T02:44:03.523Z,91.70
2018-10-06T02:46:32.113Z,91.70
2018-10-06T02:49:00.727Z,91.70
2018-10-06T02:51:29.328Z,91.60
2018-10-06T02:53:57.936Z,91.60
2018-10-06T02:56:26.522Z,91.60
2018-10-06T02:58:55.168Z,91.70
2018-10-06T03:01:23.718Z,91.70
2018-10-06T03:03:52.326Z,91.70
2018-10-06T03:06:20.888Z,91.60
2018-10-06T03:08:49.524Z,91.60
2018-10-06T03:11:18.125Z,91.50
2018-10-06T03:13:46.720Z,91.50
2018-10-06T03:16:15.327Z,91.60
2018-10-06T03:18:43.948Z,91.50
2018-10-06T03:21:12.543Z,91.50
2018-10-06T03:23:41.138Z,91.60
2018-10-06T03:26:09.761Z,91.60
2018-10-06T03:28:38.385Z,91.60
2018-10-06T03:31:06.944Z,91.60
2018-10-06T03:33:35.500Z,91.60
2018-10-06T03:36:04.109Z,91.60
2018-10-06T03:38:32.692Z,91.60
2018-10-06T03:41:01.264Z,91.50
2018-10-06T03:43:29.873Z,91.60
2018-10-06T03:45:58.548Z,91.60
2018-10-06T03:48:27.129Z,91.50
2018-10-06T03:50:55.736Z,91.40
2018-10-06T03:53:24.303Z,91.40
2018-10-06T03:55:52.895Z,91.30
2018-10-06T03:58:21.514Z,91.40
2018-10-06T04:00:50.108Z,91.30
2018-10-06T04:03:18.670Z,91.30
2018-10-06T04:05:47.276Z,91.30
2018-10-06T04:08:16.030Z,91.30
2018-10-06T04:10:44.631Z,91.40
2018-10-06T04:13:13.254Z,91.40
2018-10-06T04:15:41.898Z,91.40
2018-10-06T04:18:10.455Z,91.50
2018-10-06T04:20:39.122Z,91.50
2018-10-06T04:23:07.717Z,91.60
2018-10-06T04:25:36.287Z,92.60
2018-10-06T04:28:04.866Z,93.10
2018-10-06T04:30:33.463Z,93.20
2018-10-06T04:33:02.037Z,93.80
2018-10-06T04:35:31.604Z,93.90
2018-10-06T04:38:00.161Z,94.20
2018-10-06T04:40:28.740Z,93.60
2018-10-06T04:42:57.293Z,93.60
2018-10-06T04:45:25.860Z,93.50
2018-10-06T04:47:54.430Z,93.40
2018-10-06T04:50:23.034Z,93.10
2018-10-06T04:52:51.607Z,92.30
2018-10-06T04:55:20.228Z,92.00
2018-10-06T04:57:48.791Z,91.80
2018-10-06T05:00:17.453Z,92.00
2018-10-06T05:02:46.000Z,92.00
2018-10-06T05:05:14.583Z,92.20
2018-10-06T05:07:43.139Z,92.40
2018-10-06T05:10:11.709Z,92.10
2018-10-06T05:12:40.622Z,92.00
2018-10-06T05:15:09.170Z,92.30
2018-10-06T05:17:37.867Z,92.30
2018-10-06T05:20:06.739Z,92.30
2018-10-06T05:22:35.912Z,92.30
2018-10-06T05:25:04.536Z,92.50
2018-10-06T05:27:33.091Z,93.00
2018-10-06T05:30:01.655Z,93.30
2018-10-06T05:32:30.208Z,93.90
2018-10-06T05:34:58.787Z,93.70
2018-10-06T05:37:27.320Z,94.20
2018-10-06T05:39:56.596Z,94.30
2018-10-06T05:42:25.162Z,94.10
2018-10-06T05:44:53.790Z,93.50
2018-10-06T05:47:22.321Z,92.90
2018-10-06T05:49:50.903Z,92.70
2018-10-06T05:52:19.609Z,92.50
2018-10-06T05:54:48.169Z,92.50
2018-10-06T05:57:16.765Z,92.30
2018-10-06T05:59:45.344Z,92.30
2018-10-06T06:02:13.895Z,92.20
2018-10-06T06:04:42.475Z,92.70
2018-10-06T06:07:11.084Z,92.60
2018-10-06T06:09:39.668Z,92.50
2018-10-06T06:12:08.366Z,92.40
2018-10-06T06:14:36.951Z,92.40
2018-10-06T06:17:05.582Z,93.00
2018-10-06T06:19:34.140Z,93.30
2018-10-06T06:22:02.716Z,93.00
2018-10-06T06:24:31.388Z,92.90
2018-10-06T06:26:59.973Z,92.60
2018-10-06T06:29:28.528Z,92.30
2018-10-06T06:31:57.304Z,92.30
2018-10-06T06:34:25.844Z,92.10
2018-10-06T06:36:54.443Z,91.90
2018-10-06T06:39:23.601Z,91.80
2018-10-06T06:41:52.167Z,91.60
2018-10-06T06:44:21.432Z,91.70
2018-10-06T06:46:50.634Z,91.50
2018-10-06T06:49:19.200Z,91.50
2018-10-06T06:51:47.789Z,91.50
2018-10-06T06:54:16.392Z,91.60
2018-10-06T06:56:44.960Z,91.70
2018-10-06T06:59:13.520Z,91.90
2018-10-06T07:01:42.104Z,91.90
2018-10-06T07:04:10.656Z,91.90
2018-10-06T07:06:39.340Z,91.80
2018-10-06T07:09:08.543Z,91.70
2018-10-06T07:11:37.146Z,91.70
2018-10-06T07:14:05.694Z,91.60
2018-10-06T07:16:34.286Z,91.50
2018-10-06T07:19:02.878Z,91.40
2018-10-06T07:21:31.525Z,91.20
2018-10-06T07:24:00.184Z,91.10
2018-10-06T07:26:28.882Z,91.00
2018-10-06T07:28:57.416Z,90.60
2018-10-06T07:31:26.307Z,90.20
2018-10-06T07:33:54.877Z,90.10
2018-10-06T07:36:23.454Z,90.00
2018-10-06T07:38:52.025Z,89.30
2018-10-06T07:41:20.701Z,89.00
2018-10-06T07:43:49.283Z,87.80
2018-10-06T07:46:17.892Z,87.30
2018-10-06T07:48:46.476Z,86.60
2018-10-06T07:51:15.056Z,86.10
2018-10-06T07:53:43.593Z,85.30
2018-10-06T07:56:12.268Z,85.20
2018-10-06T07:58:40.838Z,85.10
2018-10-06T08:01:09.607Z,85.20
2018-10-06T08:03:38.251Z,84.20
2018-10-06T08:06:07.032Z,83.50
2018-10-06T08:08:35.584Z,83.50
2018-10-06T08:11:04.133Z,82.50
2018-10-06T08:13:32.888Z,81.90
2018-10-06T08:16:01.477Z,81.20
2018-10-06T08:18:30.102Z,80.40
2018-10-06T08:20:58.670Z,79.50
2018-10-06T08:23:27.864Z,78.90
2018-10-06T08:25:56.610Z,78.30
2018-10-06T08:28:25.752Z,77.50
2018-10-06T08:30:54.356Z,76.90
2018-10-06T08:33:22.999Z,76.60
2018-10-06T08:35:51.565Z,75.30
2018-10-06T08:38:20.106Z,75.00
2018-10-06T08:40:48.675Z,74.30
2018-10-06T08:43:18.109Z,73.60
2018-10-06T08:45:47.335Z,73.30
2018-10-06T08:48:15.876Z,72.90
2018-10-06T08:50:44.443Z,71.80
2018-10-06T08:53:12.979Z,71.10
2018-10-06T08:55:42.114Z,70.90
2018-10-06T08:58:10.653Z,70.50
2018-10-06T09:00:39.221Z,69.90
2018-10-06T09:03:07.764Z,69.40
2018-10-06T09:05:36.299Z,68.00
2018-10-06T09:08:04.951Z,67.30
2018-10-06T09:10:34.300Z,66.40
2018-10-06T09:13:02.852Z,65.40
2018-10-06T09:15:31.438Z,64.70
2018-10-06T09:18:00.013Z,63.60
2018-10-06T09:20:28.565Z,62.50
2018-10-06T09:22:57.094Z,62.10
2018-10-06T09:25:25.651Z,61.70
2018-10-06T09:27:54.177Z,61.20
2018-10-06T09:30:22.746Z,61.00
2018-10-06T09:32:51.298Z,60.80
2018-10-06T09:35:19.861Z,60.00
2018-10-06T09:37:48.404Z,60.00
2018-10-06T09:40:17.080Z,59.80
2018-10-06T09:42:45.783Z,59.30
2018-10-06T09:45:14.530Z,59.20
2018-10-06T09:47:43.063Z,58.50
2018-10-06T09:50:11.650Z,58.10
2018-10-06T09:52:40.245Z,58.30
2018-10-06T09:55:08.829Z,57.60
2018-10-06T09:57:37.380Z,57.70
2018-10-06T10:00:06.058Z,57.40
2018-10-06T10:02:39.956Z,56.80
2018-10-06T10:05:13.835Z,56.60
2018-10-06T10:07:42.360Z,56.20
2018-10-06T10:10:10.986Z,55.80
2018-10-06T10:12:39.641Z,55.30
2018-10-06T10:15:08.191Z,55.20
2018-10-06T10:17:36.800Z,54.60
2018-10-06T10:20:05.414Z,54.50
2018-10-06T10:22:33.978Z,53.90
2018-10-06T10:25:02.605Z,52.70
2018-10-06T10:27:31.135Z,52.70
2018-10-06T10:29:59.696Z,52.70
2018-10-06T10:32:28.275Z,52.20
2018-10-06T10:34:56.820Z,51.80
2018-10-06T10:37:25.483Z,51.40
2018-10-06T10:39:54.019Z,51.30
2018-10-06T10:42:22.575Z,50.70
2018-10-06T10:44:51.157Z,50.70
2018-10-06T10:47:19.701Z,49.80
2018-10-06T10:49:48.254Z,49.40
2018-10-06T10:52:16.793Z,49.20
2018-10-06T10:54:45.349Z,48.70
2018-10-06T10:57:13.895Z,47.50
2018-10-06T10:59:42.452Z,46.60
2018-10-06T11:02:11.048Z,46.10
2018-10-06T11:04:39.647Z,45.80
2018-10-06T11:07:08.253Z,45.60
2018-10-06T11:09:36.943Z,45.10
2018-10-06T11:12:05.488Z,44.60
2018-10-06T11:14:34.061Z,44.50
2018-10-06T11:17:02.647Z,44.20
2018-10-06T11:19:31.211Z,43.90
2018-10-06T11:21:59.786Z,43.40
2018-10-06T11:24:28.368Z,43.30
2018-10-06T11:26:57.295Z,42.80
2018-10-06T11:29:25.830Z,42.70
2018-10-06T11:31:54.409Z,42.90
2018-10-06T11:34:22.988Z,42.80
2018-10-06T11:36:51.534Z,42.80
2018-10-06T11:39:21.301Z,42.80
2018-10-06T11:41:49.901Z,42.40
2018-10-06T11:44:18.480Z,42.20
2018-10-06T11:46:47.055Z,42.60
2018-10-06T11:49:15.645Z,43.00
2018-10-06T11:51:44.174Z,42.90
2018-10-06T11:54:12.727Z,42.50
2018-10-06T11:56:41.318Z,42.30
2018-10-06T11:59:09.936Z,42.00
2018-10-06T12:01:38.627Z,41.60
2018-10-06T12:04:07.343Z,41.40
2018-10-06T12:06:36.562Z,40.50
2018-10-06T12:09:06.984Z,39.80
2018-10-06T12:11:35.889Z,39.70
2018-10-06T12:14:04.447Z,38.60
2018-10-06T12:16:33.038Z,38.10
2018-10-06T12:19:01.821Z,37.60
2018-10-06T12:21:30.397Z,37.90
2018-10-06T12:23:58.991Z,37.10
2018-10-06T12:26:27.551Z,37.10
2018-10-06T12:28:56.173Z,37.10
2018-10-06T12:31:24.756Z,36.90
2018-10-06T12:33:53.351Z,36.50
2018-10-06T12:36:21.911Z,36.20
2018-10-06T12:38:50.474Z,36.10
2018-10-06T12:41:19.053Z,36.10
2018-10-06T12:43:47.922Z,36.10
2018-10-06T12:46:16.561Z,35.60
2018-10-06T12:48:45.103Z,34.10
2018-10-06T12:53:36.022Z,32.10
2018-10-06T12:56:04.625Z,30.00
2018-10-06T12:58:33.176Z,29.70
2018-10-06T13:01:02.326Z,30.00
2018-10-06T13:03:30.891Z,30.20
2018-10-06T13:05:59.532Z,30.90
2018-10-06T13:08:28.118Z,31.60
2018-10-06T13:10:56.747Z,32.80
2018-10-06T13:13:25.534Z,32.20
2018-10-06T13:15:54.076Z,32.50
2018-10-06T13:18:23.361Z,32.80
2018-10-06T13:20:51.915Z,33.50
2018-10-06T13:23:20.485Z,33.90
2018-10-06T13:25:49.084Z,33.40
2018-10-06T13:28:17.783Z,33.70
2018-10-06T13:30:46.334Z,32.70
2018-10-06T13:33:14.884Z,32.30
2018-10-06T13:35:43.675Z,32.10
2018-10-06T13:38:12.248Z,31.50
2018-10-06T13:40:40.795Z,31.60
2018-10-06T13:43:09.526Z,31.10
2018-10-06T13:45:38.106Z,31.60
2018-10-06T13:48:06.712Z,30.90
2018-10-06T13:50:35.428Z,30.50
2018-10-06T13:53:04.071Z,30.40
2018-10-06T13:55:32.702Z,30.40
2018-10-06T13:58:01.326Z,30.70
2018-10-06T14:00:29.877Z,31.00
2018-10-06T14:02:58.435Z,31.50
2018-10-06T14:05:26.994Z,31.80
2018-10-06T14:07:55.669Z,32.00
2018-10-06T14:10:24.329Z,32.30
2018-10-06T14:12:53.153Z,32.90
2018-10-06T14:15:21.745Z,33.50
2018-10-06T14:17:50.339Z,33.80
2018-10-06T14:20:18.975Z,34.00
2018-10-06T14:22:47.547Z,34.40
2018-10-06T14:25:16.086Z,34.90
2018-10-06T14:27:44.677Z,35.00
2018-10-06T14:30:13.218Z,35.40
2018-10-06T14:32:41.854Z,36.00
2018-10-06T14:35:10.412Z,35.90
2018-10-06T14:37:38.970Z,36.20
2018-10-06T14:40:07.665Z,36.60
2018-10-06T14:42:36.258Z,36.90
2018-10-06T14:45:05.122Z,37.10
2018-10-06T14:47:33.917Z,37.30
2018-10-06T14:50:02.780Z,37.50
2018-10-06T14:52:31.787Z,37.80
2018-10-06T14:55:00.469Z,37.90
2018-10-06T14:57:29.068Z,38.20
2018-10-06T14:59:57.615Z,38.40
2018-10-06T15:02:26.199Z,39.00
2018-10-06T15:04:55.415Z,38.60
2018-10-06T15:07:24.396Z,38.50
2018-10-06T15:09:53.768Z,38.70
2018-10-06T15:12:22.813Z,38.80
2018-10-06T15:14:51.343Z,39.00
2018-10-06T15:17:20.020Z,39.40
2018-10-06T15:19:48.580Z,39.50
2018-10-06T15:22:17.169Z,39.40
2018-10-06T15:24:46.320Z,39.30
2018-10-06T15:27:14.934Z,39.50
2018-10-06T15:29:43.683Z,39.40
2018-10-06T15:32:12.223Z,39.50
2018-10-06T15:34:40.860Z,39.00
2018-10-06T15:37:09.442Z,39.70
2018-10-06T15:39:38.034Z,39.80
2018-10-06T15:42:07.488Z,39.80
2018-10-06T15:44:36.062Z,39.20
2018-10-06T15:47:04.793Z,39.00
2018-10-06T15:49:33.388Z,39.60
2018-10-06T15:52:02.150Z,39.70
2018-10-06T15:54:30.980Z,39.90
2018-10-06T15:56:59.544Z,40.50
2018-10-06T15:59:28.352Z,40.80
2018-10-06T16:01:56.878Z,41.20
2018-10-06T16:04:25.441Z,41.40
2018-10-06T16:06:53.997Z,41.70
2018-10-06T16:09:22.566Z,41.90
2018-10-06T16:11:51.124Z,42.10
2018-10-06T16:14:19.736Z,42.50
2018-10-06T16:16:48.332Z,43.00
2018-10-06T16:19:17.072Z,43.50
2018-10-06T16:21:45.614Z,43.70
2018-10-06T16:24:14.740Z,44.20
2018-10-06T16:26:43.288Z,44.60
2018-10-06T16:29:11.992Z,45.00
2018-10-06T16:31:41.153Z,45.30
2018-10-06T16:34:09.747Z,45.80
2018-10-06T16:36:38.318Z,47.00
2018-10-06T16:39:07.696Z,46.80
2018-10-06T16:41:36.602Z,47.50
2018-10-06T16:44:05.181Z,48.30
2018-10-06T16:46:33.853Z,48.90
2018-10-06T16:49:02.541Z,49.30
2018-10-06T16:51:31.231Z,50.00
2018-10-06T16:53:59.824Z,50.10
2018-10-06T16:56:28.414Z,50.60
2018-10-06T16:58:57.040Z,51.50
2018-10-06T17:01:26.303Z,51.80
2018-10-06T17:03:54.850Z,52.30
2018-10-06T17:06:23.664Z,53.10
2018-10-06T17:08:52.159Z,53.90
2018-10-06T17:11:20.862Z,53.70
2018-10-06T17:13:49.828Z,54.60
2018-10-06T17:16:18.417Z,55.00
2018-10-06T17:18:46.995Z,55.60
2018-10-06T17:21:15.755Z,55.80
2018-10-06T17:23:44.347Z,56.20
2018-10-06T17:26:12.901Z,56.70
2018-10-06T17:28:41.613Z,57.10
2018-10-06T17:31:10.422Z,57.30
2018-10-06T17:33:38.977Z,57.80
2018-10-06T17:36:07.550Z,58.30
2018-10-06T17:38:36.284Z,58.60
2018-10-06T17:41:04.945Z,59.00
2018-10-06T17:43:33.565Z,59.40
2018-10-06T17:46:02.191Z,60.10
2018-10-06T17:48:30.817Z,60.40
2018-10-06T17:50:59.708Z,60.70
2018-10-06T17:53:28.391Z,61.20
2018-10-06T17:55:57.007Z,61.60
2018-10-06T17:58:25.583Z,62.10
2018-10-06T18:00:54.260Z,62.90
2018-10-06T18:03:22.832Z,62.80
2018-10-06T18:05:51.424Z,63.60
2018-10-06T18:08:19.995Z,64.40
2018-10-06T18:10:48.572Z,64.90
2018-10-06T18:13:17.121Z,65.50
2018-10-06T18:15:45.695Z,65.80
2018-10-06T18:18:16.876Z,67.10
2018-10-06T18:20:45.658Z,67.80
2018-10-06T18:23:14.048Z,68.10
2018-10-06T18:25:42.631Z,68.90
2018-10-06T18:28:11.219Z,69.20
2018-10-06T18:30:39.821Z,69.70
2018-10-06T18:33:08.583Z,70.00
2018-10-06T18:35:37.160Z,70.30
2018-10-06T18:38:05.706Z,70.50
2018-10-06T18:40:34.312Z,70.70
2018-10-06T18:43:03.222Z,70.60
2018-10-06T18:45:32.160Z,71.00
2018-10-06T18:48:01.044Z,70.90
2018-10-06T18:50:30.262Z,71.70
2018-10-06T18:52:58.936Z,72.10
2018-10-06T18:55:27.508Z,72.50
2018-10-06T18:57:56.765Z,72.50
2018-10-06T19:00:25.593Z,72.90
2018-10-06T19:02:55.581Z,72.90
2018-10-06T19:05:24.207Z,73.80
2018-10-06T19:07:52.760Z,73.80
2018-10-06T19:10:21.720Z,74.10
2018-10-06T19:12:50.803Z,74.10
2018-10-06T19:15:19.629Z,74.30
2018-10-06T19:17:48.151Z,74.70
2018-10-06T19:20:16.919Z,75.40
2018-10-06T19:22:46.200Z,75.80
2018-10-06T19:25:15.681Z,76.10
2018-10-06T19:27:44.257Z,76.10
2018-10-06T19:30:12.892Z,76.50
2018-10-06T19:32:41.509Z,76.50
2018-10-06T19:35:10.108Z,76.50
2018-10-06T19:37:38.854Z,76.70
2018-10-06T19:40:08.567Z,76.80
2018-10-06T19:42:38.739Z,76.90
2018-10-06T19:45:07.364Z,77.20
2018-10-06T19:47:35.941Z,77.40
2018-10-06T19:50:04.833Z,77.60
2018-10-06T19:52:33.740Z,77.70
2018-10-06T19:55:02.325Z,77.90
2018-10-06T19:57:30.940Z,78.00
2018-10-06T19:59:59.510Z,78.10
2018-10-06T20:02:28.113Z,79.10
2018-10-06T20:04:56.693Z,79.40
2018-10-06T20:07:25.239Z,79.30
2018-10-06T20:09:53.837Z,80.50
2018-10-06T20:12:22.422Z,81.30
2018-10-06T20:14:51.003Z,80.70
2018-10-06T20:17:19.588Z,81.50
2018-10-06T20:19:48.139Z,80.90
2018-10-06T20:22:16.859Z,80.70
2018-10-06T20:24:46.992Z,81.10
2018-10-06T20:27:16.770Z,81.00
2018-10-06T20:29:45.376Z,81.50
2018-10-06T20:32:14.111Z,81.30
2018-10-06T20:34:42.692Z,81.60
2018-10-06T20:37:11.250Z,81.90
2018-10-06T20:39:40.634Z,82.10
2018-10-06T20:42:09.186Z,82.10
2018-10-06T20:44:37.719Z,82.30
2018-10-06T20:47:06.311Z,82.40
2018-10-06T20:49:35.461Z,82.40
2018-10-06T20:52:04.886Z,82.80
2018-10-06T20:54:33.431Z,83.00
2018-10-06T20:57:02.014Z,83.40
2018-10-06T20:59:30.576Z,83.40
2018-10-06T21:01:59.166Z,83.60
2018-10-06T21:04:27.722Z,83.80
2018-10-06T21:06:56.259Z,83.90
2018-10-06T21:09:25.146Z,84.00
2018-10-06T21:11:53.737Z,84.30
2018-10-06T21:14:22.301Z,84.30
2018-10-06T21:16:50.874Z,84.80
2018-10-06T21:19:19.454Z,85.00
2018-10-06T21:21:48.010Z,85.80
2018-10-06T21:24:17.040Z,85.70
2018-10-06T21:26:45.617Z,86.30
2018-10-06T21:29:14.314Z,86.20
2018-10-06T21:31:43.025Z,86.40
2018-10-06T21:34:11.750Z,86.70
2018-10-06T21:36:40.288Z,87.30
2018-10-06T21:39:09.628Z,87.20
2018-10-06T21:41:38.392Z,87.70
2018-10-06T21:44:06.964Z,88.00
2018-10-06T21:46:35.536Z,88.20
2018-10-06T21:49:04.124Z,88.50
2018-10-06T21:51:32.705Z,88.40
2018-10-06T21:54:01.309Z,89.00
2018-10-06T21:56:29.890Z,89.20
2018-10-06T21:58:58.490Z,89.30
2018-10-06T22:01:27.034Z,89.60
2018-10-06T22:03:55.595Z,90.00
2018-10-06T22:06:24.324Z,90.00
2018-10-06T22:08:54.652Z,90.30
2018-10-06T22:11:24.141Z,90.20
2018-10-06T22:13:52.701Z,90.20
2018-10-06T22:16:21.527Z,90.30
2018-10-06T22:18:50.173Z,90.50
2018-10-06T22:21:18.761Z,90.60
2018-10-06T22:23:47.851Z,90.80
2018-10-06T22:26:17.252Z,91.00
2018-10-06T22:28:45.847Z,90.80
2018-10-06T22:31:14.399Z,90.70
2018-10-06T22:33:42.979Z,90.70
2018-10-06T22:36:11.578Z,90.90
2018-10-06T22:38:42.447Z,91.00
2018-10-06T22:41:11.803Z,90.90
2018-10-06T22:43:40.444Z,90.90
2018-10-06T22:46:10.150Z,90.80
2018-10-06T22:48:38.741Z,90.80
2018-10-06T22:51:07.697Z,90.80
2018-10-06T22:53:36.622Z,90.80
2018-10-06T22:56:05.220Z,90.80
2018-10-06T22:58:33.794Z,90.80
2018-10-06T23:01:02.393Z,91.20
2018-10-06T23:03:30.995Z,91.10
2018-10-06T23:05:59.539Z,91.10
2018-10-06T23:08:28.100Z,91.20
2018-10-06T23:10:56.742Z,91.30
2018-10-06T23:13:25.328Z,91.40
2018-10-06T23:15:53.918Z,91.40
2018-10-06T23:18:22.495Z,91.30
2018-10-06T23:20:51.085Z,91.40
2018-10-06T23:23:19.656Z,91.50
2018-10-06T23:25:48.353Z,91.50
2018-10-06T23:28:16.922Z,91.40
2018-10-06T23:30:45.493Z,91.40
2018-10-06T23:33:14.047Z,91.50
2018-10-06T23:35:42.615Z,91.50
2018-10-06T23:38:11.231Z,91.50
2018-10-06T23:40:39.817Z,91.70
2018-10-06T23:43:08.383Z,91.80
2018-10-06T23:45:37.351Z,91.80
2018-10-06T23:48:05.965Z,91.50
2018-10-06T23:50:34.506Z,91.50
2018-10-06T23:53:03.070Z,91.40
2018-10-06T23:55:31.610Z,91.40
2018-10-06T23:58:00.187Z,91.50
